Time;durP1;ratioP1;P1;durP2;ratioP2;P2;SDS_P1;SDS_P2;PMS_P1;PMS_P2;Temp;Humidity;BMP_temperature;BMP_pressure;BME280_temperature;BME280_humidity;BME280_pressure;Samples;Min_cycle;Max_cycle;Signal;HPM_P1;HPM_P2
2023/03/03 00:00:33;;;;;;;;;;;3.40;99.90;;;;;;4871486;29;20000;-77
2023/03/03 00:03:01;;;;;;;;;;;3.40;99.90;;;;;;4869938;29;19932;-77
2023/03/03 00:05:28;;;;;;;;;;;3.40;99.90;;;;;;4868509;29;20005;-77
2023/03/03 00:07:55;;;;;;;;;;;3.40;99.90;;;;;;4867013;29;19928;-77
2023/03/03 00:10:22;;;;;;;;;;;3.40;99.90;;;;;;4866924;29;20318;-77
2023/03/03 00:12:49;;;;;;;;;;;3.40;99.90;;;;;;4868166;29;19935;-77
2023/03/03 00:15:17;;;;;;;;;;;3.40;99.90;;;;;;4869778;29;19975;-77
2023/03/03 00:17:46;;;;;;;;;;;3.40;99.90;;;;;;4887711;29;19935;-77
2023/03/03 00:20:40;;;;;;;;;;;3.40;99.90;;;;;;4898588;29;20417;-77
2023/03/03 00:23:24;;;;;;;;;;;3.40;99.90;;;;;;4844966;29;20284;-77
2023/03/03 00:25:52;;;;;;;;;;;3.40;99.90;;;;;;4871615;29;20486;-77
2023/03/03 00:28:24;;;;;;;;;;;3.40;99.90;;;;;;4873766;29;19971;-77
2023/03/03 00:30:51;;;;;;;;;;;3.40;99.90;;;;;;4868888;29;19959;-77
2023/03/03 00:33:28;;;;;;;;;;;3.40;99.90;;;;;;4902582;29;19963;-77
2023/03/03 00:35:55;;;;;;;;;;;3.40;99.90;;;;;;4883995;29;19939;-77
2023/03/03 00:38:22;;;;;;;;;;;3.40;99.90;;;;;;4874810;29;19936;-76
2023/03/03 00:40:49;;;;;;;;;;;3.40;99.90;;;;;;4871586;29;19928;-77
2023/03/03 00:43:20;;;;;;;;;;;3.30;99.90;;;;;;4874460;29;19928;-77
2023/03/03 00:45:48;;;;;;;;;;;3.40;99.90;;;;;;4899758;29;19940;-77
2023/03/03 00:48:22;;;;;;;;;;;3.30;99.90;;;;;;4868665;29;19928;-78
2023/03/03 00:50:51;;;;;;;;;;;3.30;99.90;;;;;;4871699;29;19928;-77
2023/03/03 00:53:19;;;;;;;;;;;3.30;99.90;;;;;;4873920;29;19971;-77
2023/03/03 00:55:47;;;;;;;;;;;3.30;99.90;;;;;;4874775;29;20018;-77
2023/03/03 00:58:14;;;;;;;;;;;3.30;99.90;;;;;;4872052;29;19928;-77
2023/03/03 01:00:44;;;;;;;;;;;3.30;99.90;;;;;;4907458;29;19931;-77
2023/03/03 01:03:15;;;;;;;;;;;3.30;99.90;;;;;;4902877;29;19928;-77
2023/03/03 01:05:42;;;;;;;;;;;3.30;99.90;;;;;;4901797;29;19954;-77
2023/03/03 01:08:10;;;;;;;;;;;3.30;99.90;;;;;;4900469;29;19939;-77
2023/03/03 01:10:39;;;;;;;;;;;3.30;99.90;;;;;;4873573;29;19950;-77
2023/03/03 01:13:06;;;;;;;;;;;3.30;99.90;;;;;;4870840;29;19936;-77
2023/03/03 01:15:33;;;;;;;;;;;3.30;99.90;;;;;;4876291;29;19932;-77
2023/03/03 01:18:00;;;;;;;;;;;3.30;99.90;;;;;;4875009;29;20018;-77
2023/03/03 01:20:27;;;;;;;;;;;3.30;99.90;;;;;;4868487;29;20001;-78
2023/03/03 01:22:54;;;;;;;;;;;3.30;99.90;;;;;;4867820;29;20863;-78
2023/03/03 01:25:22;;;;;;;;;;;3.30;99.90;;;;;;4889098;29;20399;-77
2023/03/03 01:27:49;;;;;;;;;;;3.30;99.90;;;;;;4873670;29;19938;-78
2023/03/03 01:30:16;;;;;;;;;;;3.30;99.90;;;;;;4868765;29;20403;-77
2023/03/03 01:32:43;;;;;;;;;;;3.30;99.90;;;;;;4875807;29;20370;-77
2023/03/03 01:35:10;;;;;;;;;;;3.30;99.90;;;;;;4872445;29;19970;-77
2023/03/03 01:37:36;;;;;;;;;;;3.20;99.90;;;;;;4873524;29;19932;-78
2023/03/03 01:40:04;;;;;;;;;;;3.30;99.90;;;;;;4874868;29;19942;-77
2023/03/03 01:42:32;;;;;;;;;;;3.20;99.90;;;;;;4869928;29;20463;-76
2023/03/03 01:45:16;;;;;;;;;;;3.20;99.90;;;;;;4874817;29;19985;-77
2023/03/03 01:47:45;;;;;;;;;;;3.20;99.90;;;;;;4869567;29;20577;-77
2023/03/03 01:50:14;;;;;;;;;;;3.20;99.90;;;;;;4872753;29;19932;-77
2023/03/03 01:52:42;;;;;;;;;;;3.20;99.90;;;;;;4869710;29;20395;-76
2023/03/03 01:55:13;;;;;;;;;;;3.20;99.90;;;;;;4902546;29;20612;-77
2023/03/03 01:57:43;;;;;;;;;;;3.20;99.90;;;;;;4867560;29;19928;-78
2023/03/03 02:00:14;;;;;;;;;;;3.20;99.90;;;;;;4902099;29;19927;-77
2023/03/03 02:02:42;;;;;;;;;;;3.20;99.90;;;;;;4872141;29;19940;-78
2023/03/03 02:05:09;;;;;;;;;;;3.20;99.90;;;;;;4871707;29;19932;-77
2023/03/03 02:07:37;;;;;;;;;;;3.20;99.90;;;;;;4865594;29;20368;-77
2023/03/03 02:10:05;;;;;;;;;;;3.20;99.90;;;;;;4868980;29;19939;-77
2023/03/03 02:12:34;;;;;;;;;;;3.20;99.90;;;;;;4869847;29;19928;-78
2023/03/03 02:15:08;;;;;;;;;;;3.20;99.90;;;;;;4903895;29;20482;-77
2023/03/03 02:17:35;;;;;;;;;;;3.20;99.90;;;;;;4867647;29;20326;-77
2023/03/03 02:20:05;;;;;;;;;;;3.20;99.90;;;;;;4871755;29;19967;-77
2023/03/03 02:22:43;;;;;;;;;;;3.20;99.90;;;;;;4899518;29;22406;-77
2023/03/03 02:25:13;;;;;;;;;;;3.20;99.90;;;;;;4869529;29;20428;-76
2023/03/03 02:27:41;;;;;;;;;;;3.20;99.90;;;;;;4900892;29;19936;-77
2023/03/03 02:30:10;;;;;;;;;;;3.20;99.90;;;;;;4870091;29;20044;-77
2023/03/03 02:32:37;;;;;;;;;;;3.10;99.90;;;;;;4870474;29;19929;-77
2023/03/03 02:35:19;;;;;;;;;;;3.10;99.90;;;;;;4877589;29;19928;-77
2023/03/03 02:37:46;;;;;;;;;;;3.20;99.90;;;;;;4867977;29;19999;-77
2023/03/03 02:40:13;;;;;;;;;;;3.20;99.90;;;;;;4869896;29;19938;-77
2023/03/03 02:42:43;;;;;;;;;;;3.20;99.90;;;;;;4869305;29;19932;-77
2023/03/03 02:45:09;;;;;;;;;;;3.20;99.90;;;;;;4896577;29;19978;-77
2023/03/03 02:47:36;;;;;;;;;;;3.20;99.90;;;;;;4867194;29;19970;-77
2023/03/03 02:50:03;;;;;;;;;;;3.10;99.90;;;;;;4899481;29;20330;-77
2023/03/03 02:52:30;;;;;;;;;;;3.10;99.90;;;;;;4866116;29;19983;-77
2023/03/03 02:54:57;;;;;;;;;;;3.10;99.90;;;;;;4870714;29;19942;-77
2023/03/03 02:57:24;;;;;;;;;;;3.10;99.90;;;;;;4871652;29;20066;-77
2023/03/03 02:59:52;;;;;;;;;;;3.10;99.90;;;;;;4897625;29;19932;-77
2023/03/03 03:02:19;;;;;;;;;;;3.10;99.90;;;;;;4900086;29;19932;-77
2023/03/03 03:04:47;;;;;;;;;;;3.10;99.90;;;;;;4902748;29;19935;-77
2023/03/03 03:07:18;;;;;;;;;;;3.10;99.90;;;;;;4872029;29;20410;-76
2023/03/03 03:09:44;;;;;;;;;;;3.10;99.90;;;;;;4868723;29;19935;-76
2023/03/03 03:12:11;;;;;;;;;;;3.10;99.90;;;;;;4870016;29;19935;-77
2023/03/03 03:14:38;;;;;;;;;;;3.10;99.90;;;;;;4900786;29;19935;-77
2023/03/03 03:17:08;;;;;;;;;;;3.10;99.90;;;;;;4870020;29;19932;-77
2023/03/03 03:19:34;;;;;;;;;;;3.10;99.90;;;;;;4868712;29;19935;-76
2023/03/03 03:22:02;;;;;;;;;;;3.10;99.90;;;;;;4872260;29;19928;-77
2023/03/03 03:24:31;;;;;;;;;;;3.10;99.90;;;;;;4868405;29;19935;-77
2023/03/03 03:27:03;;;;;;;;;;;3.10;99.90;;;;;;4899004;29;19936;-77
2023/03/03 03:29:30;;;;;;;;;;;3.10;99.90;;;;;;4897613;29;19954;-77
2023/03/03 03:31:56;;;;;;;;;;;3.10;99.90;;;;;;4870417;29;20406;-76
2023/03/03 03:34:25;;;;;;;;;;;3.10;99.90;;;;;;4871635;29;19967;-77
2023/03/03 03:36:53;;;;;;;;;;;3.00;99.90;;;;;;4894464;29;19932;-77
2023/03/03 03:39:22;;;;;;;;;;;3.10;99.90;;;;;;4868436;29;19950;-77
2023/03/03 03:41:51;;;;;;;;;;;3.10;99.90;;;;;;4867610;29;19927;-77
2023/03/03 03:44:18;;;;;;;;;;;3.10;99.90;;;;;;4899211;29;19928;-76
2023/03/03 03:46:44;;;;;;;;;;;3.10;99.90;;;;;;4898231;29;19928;-77
2023/03/03 03:49:11;;;;;;;;;;;3.10;99.90;;;;;;4864492;29;19974;-77
2023/03/03 03:51:40;;;;;;;;;;;3.10;99.90;;;;;;4867129;29;20014;-77
2023/03/03 03:54:09;;;;;;;;;;;3.10;99.90;;;;;;4885032;29;20030;-77
2023/03/03 03:56:37;;;;;;;;;;;3.10;99.90;;;;;;4870799;29;19963;-77
2023/03/03 03:59:06;;;;;;;;;;;3.00;99.90;;;;;;4900230;29;19928;-76
2023/03/03 04:01:32;;;;;;;;;;;3.00;99.90;;;;;;4869398;29;19928;-77
2023/03/03 04:03:59;;;;;;;;;;;3.00;99.90;;;;;;4901276;29;19928;-76
2023/03/03 04:06:26;;;;;;;;;;;3.00;99.90;;;;;;4865812;29;20411;-77
2023/03/03 04:08:56;;;;;;;;;;;3.00;99.90;;;;;;4866490;29;19927;-77
2023/03/03 04:11:23;;;;;;;;;;;3.00;99.90;;;;;;4865714;29;19928;-77
2023/03/03 04:13:50;;;;;;;;;;;3.00;99.90;;;;;;4885108;29;20011;-78
2023/03/03 04:16:17;;;;;;;;;;;3.00;99.90;;;;;;4901915;29;19934;-77
2023/03/03 04:18:45;;;;;;;;;;;3.00;99.90;;;;;;4871915;29;20058;-77
2023/03/03 04:21:14;;;;;;;;;;;3.00;99.90;;;;;;4869685;29;19971;-77
2023/03/03 04:23:41;;;;;;;;;;;3.00;99.90;;;;;;4883869;29;20040;-77
2023/03/03 04:26:10;;;;;;;;;;;3.00;99.90;;;;;;4864150;29;20341;-77
2023/03/03 04:28:37;;;;;;;;;;;3.00;99.90;;;;;;4873670;29;19938;-77
2023/03/03 04:31:04;;;;;;;;;;;3.00;99.90;;;;;;4871792;29;19984;-77
2023/03/03 04:33:32;;;;;;;;;;;3.00;99.90;;;;;;4900566;29;19980;-77
2023/03/03 04:36:01;;;;;;;;;;;3.00;99.90;;;;;;4874001;29;19946;-77
2023/03/03 04:38:28;;;;;;;;;;;3.00;99.90;;;;;;4872828;29;19936;-77
2023/03/03 04:40:56;;;;;;;;;;;3.00;99.90;;;;;;4865320;29;20433;-77
2023/03/03 04:43:26;;;;;;;;;;;3.00;99.90;;;;;;4868245;29;19932;-77
2023/03/03 04:45:54;;;;;;;;;;;3.00;99.90;;;;;;4902681;29;20018;-77
2023/03/03 04:48:22;;;;;;;;;;;3.00;99.90;;;;;;4900148;29;20195;-77
2023/03/03 04:50:49;;;;;;;;;;;3.00;99.90;;;;;;4873362;29;19928;-77
2023/03/03 04:53:16;;;;;;;;;;;3.00;99.90;;;;;;4898023;29;19928;-77
2023/03/03 04:55:43;;;;;;;;;;;3.00;99.90;;;;;;4869275;29;19986;-77
2023/03/03 04:58:10;;;;;;;;;;;3.00;99.90;;;;;;4875752;29;19932;-77
2023/03/03 05:00:38;;;;;;;;;;;3.00;99.90;;;;;;4870013;29;19963;-77
2023/03/03 05:03:07;;;;;;;;;;;3.00;99.90;;;;;;4870724;29;20307;-77
2023/03/03 05:05:34;;;;;;;;;;;3.00;99.90;;;;;;4869286;29;19946;-76
2023/03/03 05:08:00;;;;;;;;;;;3.00;99.90;;;;;;4868056;29;19986;-78
2023/03/03 05:10:27;;;;;;;;;;;3.00;99.90;;;;;;4875067;29;19928;-77
2023/03/03 05:12:54;;;;;;;;;;;3.00;99.90;;;;;;4866582;29;19934;-76
2023/03/03 05:15:21;;;;;;;;;;;2.90;99.90;;;;;;4874464;29;20012;-76
2023/03/03 05:17:52;;;;;;;;;;;3.00;99.90;;;;;;4878164;29;19927;-77
2023/03/03 05:20:19;;;;;;;;;;;2.90;99.90;;;;;;4873924;29;19935;-79
2023/03/03 05:22:46;;;;;;;;;;;2.90;99.90;;;;;;4872453;29;20403;-78
2023/03/03 05:25:12;;;;;;;;;;;3.00;99.90;;;;;;4867782;29;19995;-79
2023/03/03 05:27:39;;;;;;;;;;;2.90;99.90;;;;;;4877431;29;20034;-78
2023/03/03 05:30:07;;;;;;;;;;;2.90;99.90;;;;;;4875918;29;19940;-78
2023/03/03 05:32:34;;;;;;;;;;;2.90;99.90;;;;;;4893553;29;19935;-76
2023/03/03 05:35:06;;;;;;;;;;;2.90;99.90;;;;;;4875910;29;19994;-79
2023/03/03 05:37:32;;;;;;;;;;;2.90;99.90;;;;;;4881511;29;20052;-80
2023/03/03 05:39:59;;;;;;;;;;;2.90;99.90;;;;;;4881589;29;20026;-78
2023/03/03 05:42:26;;;;;;;;;;;2.90;99.90;;;;;;4876244;29;19935;-78
2023/03/03 05:44:53;;;;;;;;;;;2.90;99.90;;;;;;4876463;29;19928;-78
2023/03/03 05:47:25;;;;;;;;;;;2.90;99.90;;;;;;4879856;29;20411;-80
2023/03/03 05:49:53;;;;;;;;;;;2.90;99.90;;;;;;4880526;29;19928;-79
2023/03/03 05:52:24;;;;;;;;;;;2.90;99.90;;;;;;4878969;29;19976;-79
2023/03/03 05:54:57;;;;;;;;;;;2.90;99.90;;;;;;4877139;29;20410;-80
2023/03/03 05:57:26;;;;;;;;;;;2.90;99.90;;;;;;4880959;29;19982;-81
2023/03/03 05:59:56;;;;;;;;;;;2.90;99.90;;;;;;4879139;29;19976;-80
2023/03/03 06:02:23;;;;;;;;;;;2.90;99.90;;;;;;4872730;29;19936;-79
2023/03/03 06:04:50;;;;;;;;;;;2.90;99.90;;;;;;4872904;29;19971;-78
2023/03/03 06:07:17;;;;;;;;;;;2.90;99.90;;;;;;4872388;29;21528;-80
2023/03/03 06:09:45;;;;;;;;;;;2.90;99.90;;;;;;4875914;29;19942;-80
2023/03/03 06:12:13;;;;;;;;;;;2.90;99.90;;;;;;4888339;29;19949;-79
2023/03/03 06:14:46;;;;;;;;;;;2.90;99.90;;;;;;4892892;29;19936;-82
2023/03/03 06:17:13;;;;;;;;;;;2.90;99.90;;;;;;4876135;29;19927;-81
2023/03/03 06:20:07;;;;;;;;;;;2.90;99.90;;;;;;4912136;29;19927;-81
2023/03/03 06:23:05;;;;;;;;;;;2.90;99.90;;;;;;4866506;29;19970;-81
2023/03/03 06:25:34;;;;;;;;;;;2.90;99.90;;;;;;4870243;29;19928;-81
2023/03/03 06:28:02;;;;;;;;;;;2.90;99.90;;;;;;4869362;29;20145;-81
2023/03/03 06:30:29;;;;;;;;;;;2.90;99.90;;;;;;4870715;29;19935;-82
2023/03/03 06:32:56;;;;;;;;;;;2.90;99.90;;;;;;4868257;29;19936;-81
2023/03/03 06:35:23;;;;;;;;;;;2.90;99.90;;;;;;4858333;29;19928;-79
2023/03/03 06:37:50;;;;;;;;;;;2.90;99.90;;;;;;4862689;29;20175;-81
2023/03/03 06:40:17;;;;;;;;;;;2.90;99.90;;;;;;4862081;29;19939;-80
2023/03/03 06:42:46;;;;;;;;;;;2.90;99.90;;;;;;4866333;29;19981;-81
2023/03/03 06:45:13;;;;;;;;;;;2.90;99.90;;;;;;4863307;29;19933;-80
2023/03/03 06:47:40;;;;;;;;;;;2.90;99.90;;;;;;4862884;29;19935;-80
2023/03/03 06:50:07;;;;;;;;;;;2.90;99.90;;;;;;4863654;29;19939;-81
2023/03/03 06:52:34;;;;;;;;;;;2.80;99.90;;;;;;4891410;29;20014;-81
2023/03/03 06:55:10;;;;;;;;;;;2.90;99.90;;;;;;4855038;29;20107;-79
2023/03/03 07:01:35;;;;;;;;;;;2.90;99.90;;;;;;4839742;29;20032;-81
2023/03/03 07:04:32;;;;;;;;;;;2.90;99.90;;;;;;4822267;29;19992;-80
2023/03/03 07:10:50;;;;;;;;;;;2.80;99.90;;;;;;4816509;29;19947;-81
2023/03/03 07:16:04;;;;;;;;;;;2.90;99.90;;;;;;4975212;23;19927;-81
2023/03/03 07:18:37;;;;;;;;;;;2.80;99.90;;;;;;4913495;29;19927;-80
2023/03/03 07:21:12;;;;;;;;;;;2.90;99.90;;;;;;4910350;29;19931;-80
2023/03/03 07:23:41;;;;;;;;;;;2.80;99.90;;;;;;4903369;29;19974;-80
2023/03/03 07:26:08;;;;;;;;;;;2.80;99.90;;;;;;4888216;29;19927;-79
2023/03/03 07:28:35;;;;;;;;;;;2.80;99.90;;;;;;4884387;29;19967;-79
2023/03/03 07:31:17;;;;;;;;;;;2.80;99.90;;;;;;4889598;29;19932;-80
2023/03/03 07:33:45;;;;;;;;;;;2.90;99.90;;;;;;4885643;29;19931;-79
2023/03/03 07:36:22;;;;;;;;;;;2.80;99.90;;;;;;4885391;29;20466;-80
2023/03/03 07:38:51;;;;;;;;;;;2.80;99.90;;;;;;4890133;29;19953;-80
2023/03/03 07:41:22;;;;;;;;;;;2.80;99.90;;;;;;4889085;29;19928;-80
2023/03/03 07:43:53;;;;;;;;;;;2.80;99.90;;;;;;4889127;29;19927;-80
2023/03/03 07:46:27;;;;;;;;;;;2.80;99.90;;;;;;4886380;29;19942;-80
2023/03/03 07:48:56;;;;;;;;;;;2.80;99.90;;;;;;4887356;29;19931;-80
2023/03/03 07:51:26;;;;;;;;;;;2.80;99.90;;;;;;4893147;29;19931;-79
2023/03/03 07:53:54;;;;;;;;;;;2.80;99.90;;;;;;4895744;29;19928;-81
2023/03/03 07:56:28;;;;;;;;;;;2.80;99.90;;;;;;4889426;29;20113;-79
2023/03/03 07:58:56;;;;;;;;;;;2.80;99.90;;;;;;4888621;29;19943;-80
2023/03/03 08:01:41;;;;;;;;;;;2.80;99.90;;;;;;4895383;29;19931;-80
2023/03/03 08:04:15;;;;;;;;;;;2.80;99.90;;;;;;4892029;29;20302;-80
2023/03/03 08:06:52;;;;;;;;;;;2.80;99.90;;;;;;4893358;29;19990;-81
2023/03/03 08:09:40;;;;;;;;;;;2.80;99.90;;;;;;4896391;29;19970;-80
2023/03/03 08:12:25;;;;;;;;;;;2.80;99.90;;;;;;4892877;29;19933;-80
2023/03/03 08:14:54;;;;;;;;;;;2.80;99.90;;;;;;4887015;29;20447;-81
2023/03/03 08:17:23;;;;;;;;;;;2.80;99.90;;;;;;4894891;29;19954;-80
2023/03/03 08:19:52;;;;;;;;;;;2.80;99.90;;;;;;4893857;29;19934;-80
2023/03/03 08:22:22;;;;;;;;;;;2.80;99.90;;;;;;4895626;29;19934;-80
2023/03/03 08:24:50;;;;;;;;;;;2.80;99.90;;;;;;4897748;29;19927;-81
2023/03/03 08:27:17;;;;;;;;;;;2.80;99.90;;;;;;4890392;29;19954;-81
2023/03/03 08:29:44;;;;;;;;;;;2.80;99.90;;;;;;4897637;29;19995;-82
2023/03/03 08:32:11;;;;;;;;;;;2.80;99.90;;;;;;4897438;29;19936;-81
2023/03/03 08:34:39;;;;;;;;;;;2.80;99.90;;;;;;4896737;29;19979;-80
2023/03/03 08:37:07;;;;;;;;;;;2.80;99.90;;;;;;4909609;29;19991;-80
2023/03/03 08:39:34;;;;;;;;;;;2.80;99.90;;;;;;4895859;29;19979;-81
2023/03/03 08:42:02;;;;;;;;;;;2.80;99.90;;;;;;4897048;29;20009;-81
2023/03/03 08:44:32;;;;;;;;;;;2.90;99.90;;;;;;4892988;29;19943;-80
2023/03/03 08:47:00;;;;;;;;;;;2.80;99.90;;;;;;4895910;29;20398;-81
2023/03/03 08:49:27;;;;;;;;;;;2.80;99.90;;;;;;4891580;29;19983;-80
2023/03/03 08:51:55;;;;;;;;;;;2.80;99.90;;;;;;4900961;29;19952;-81
2023/03/03 08:54:27;;;;;;;;;;;2.80;99.90;;;;;;4904618;29;19939;-81
2023/03/03 08:56:54;;;;;;;;;;;2.80;99.90;;;;;;4916975;29;19952;-81
2023/03/03 08:59:22;;;;;;;;;;;2.90;99.90;;;;;;4887337;29;20466;-81
2023/03/03 09:01:52;;;;;;;;;;;2.90;99.90;;;;;;4897169;29;20318;-81
2023/03/03 09:04:20;;;;;;;;;;;2.80;99.90;;;;;;4892432;29;19943;-81
2023/03/03 09:06:47;;;;;;;;;;;2.90;99.90;;;;;;4896736;29;19983;-80
2023/03/03 09:09:15;;;;;;;;;;;2.90;99.90;;;;;;4897398;29;19932;-80
2023/03/03 09:11:57;;;;;;;;;;;2.90;99.90;;;;;;4899117;29;20410;-81
2023/03/03 09:14:27;;;;;;;;;;;2.90;99.90;;;;;;4897406;29;19931;-81
2023/03/03 09:16:56;;;;;;;;;;;2.90;99.90;;;;;;4897961;29;20417;-80
2023/03/03 09:19:25;;;;;;;;;;;2.90;99.90;;;;;;4897398;29;19959;-81
2023/03/03 09:21:53;;;;;;;;;;;2.90;99.90;;;;;;4901571;29;19935;-81
2023/03/03 09:24:24;;;;;;;;;;;2.90;99.90;;;;;;4896001;29;19959;-80
2023/03/03 09:26:53;;;;;;;;;;;2.90;99.90;;;;;;4897165;29;19982;-81
2023/03/03 09:29:25;;;;;;;;;;;2.90;99.90;;;;;;4892954;29;20023;-81
2023/03/03 09:31:55;;;;;;;;;;;2.90;99.90;;;;;;4891988;29;19928;-81
2023/03/03 09:34:23;;;;;;;;;;;2.90;99.90;;;;;;4899020;29;19927;-80
2023/03/03 09:36:51;;;;;;;;;;;2.90;99.90;;;;;;4901466;29;20004;-81
2023/03/03 09:39:19;;;;;;;;;;;3.00;99.90;;;;;;4898805;29;20379;-80
2023/03/03 09:42:10;;;;;;;;;;;3.00;99.90;;;;;;4894412;29;19933;-80
2023/03/03 09:44:55;;;;;;;;;;;3.00;99.90;;;;;;4903373;29;19928;-81
2023/03/03 09:47:42;;;;;;;;;;;3.00;99.90;;;;;;4903340;29;19928;-81
2023/03/03 09:50:18;;;;;;;;;;;3.00;99.90;;;;;;4899294;29;19927;-81
2023/03/03 09:52:52;;;;;;;;;;;3.00;99.90;;;;;;4903252;29;19954;-81
2023/03/03 09:55:31;;;;;;;;;;;3.00;99.90;;;;;;4898073;29;19964;-81
2023/03/03 09:58:11;;;;;;;;;;;3.00;99.90;;;;;;4897473;29;20386;-81
2023/03/03 10:00:57;;;;;;;;;;;3.00;99.90;;;;;;4903409;29;19931;-81
2023/03/03 10:03:45;;;;;;;;;;;3.00;99.90;;;;;;4899115;29;19928;-81
2023/03/03 10:06:22;;;;;;;;;;;3.10;99.90;;;;;;4898012;29;19999;-80
2023/03/03 10:09:01;;;;;;;;;;;3.00;99.90;;;;;;4898023;29;20387;-80
2023/03/03 10:11:35;;;;;;;;;;;3.10;99.90;;;;;;4898399;29;19933;-80
2023/03/03 10:14:20;;;;;;;;;;;3.10;99.90;;;;;;4901293;29;19951;-81
2023/03/03 10:16:55;;;;;;;;;;;3.10;99.90;;;;;;4898967;29;19934;-81
2023/03/03 10:19:35;;;;;;;;;;;3.10;99.90;;;;;;4898726;29;19931;-80
2023/03/03 10:22:07;;;;;;;;;;;3.10;99.90;;;;;;4901640;29;19935;-81
2023/03/03 10:24:39;;;;;;;;;;;3.10;99.90;;;;;;4905131;29;20022;-81
2023/03/03 10:27:21;;;;;;;;;;;3.20;99.90;;;;;;4898761;29;19987;-81
2023/03/03 10:29:59;;;;;;;;;;;3.10;99.90;;;;;;4901186;29;19956;-80
2023/03/03 10:32:50;;;;;;;;;;;3.10;99.90;;;;;;4894254;29;19944;-82
2023/03/03 10:35:47;;;;;;;;;;;3.20;99.90;;;;;;4892155;29;19927;-80
2023/03/03 10:38:27;;;;;;;;;;;3.20;99.90;;;;;;4901500;29;19972;-80
2023/03/03 10:41:12;;;;;;;;;;;3.20;99.90;;;;;;4900085;29;19934;-81
2023/03/03 10:43:52;;;;;;;;;;;3.20;99.90;;;;;;4902668;29;19934;-81
2023/03/03 10:46:35;;;;;;;;;;;3.30;99.90;;;;;;4912379;29;20061;-81
2023/03/03 10:49:33;;;;;;;;;;;3.30;99.90;;;;;;4896758;29;19935;-82
2023/03/03 10:52:14;;;;;;;;;;;3.30;99.90;;;;;;4897895;29;19928;-80
2023/03/03 10:54:55;;;;;;;;;;;3.30;99.90;;;;;;4896129;29;19927;-80
2023/03/03 10:57:30;;;;;;;;;;;3.30;99.90;;;;;;4900543;29;19974;-80
2023/03/03 11:00:17;;;;;;;;;;;3.40;99.90;;;;;;4886255;29;19927;-80
2023/03/03 11:03:00;;;;;;;;;;;3.40;99.90;;;;;;4899568;29;20029;-80
2023/03/03 11:05:32;;;;;;;;;;;3.30;99.90;;;;;;4894190;29;19927;-80
2023/03/03 11:08:02;;;;;;;;;;;3.40;99.90;;;;;;4894037;29;19928;-80
2023/03/03 11:10:33;;;;;;;;;;;3.50;99.90;;;;;;4885961;29;19935;-80
2023/03/03 11:13:09;;;;;;;;;;;3.40;99.90;;;;;;4892428;29;20452;-79
2023/03/03 11:15:42;;;;;;;;;;;3.40;99.90;;;;;;4893048;29;20392;-80
2023/03/03 11:18:20;;;;;;;;;;;3.50;99.90;;;;;;4890274;29;19927;-79
2023/03/03 11:20:52;;;;;;;;;;;3.50;99.90;;;;;;4888487;29;19975;-79
2023/03/03 11:23:32;;;;;;;;;;;3.50;99.90;;;;;;4889733;29;19942;-80
2023/03/03 11:26:07;;;;;;;;;;;3.50;99.90;;;;;;4907610;29;19918;-80
2023/03/03 11:28:43;;;;;;;;;;;3.50;99.90;;;;;;4917898;29;19951;-76
2023/03/03 11:31:19;;;;;;;;;;;3.60;99.90;;;;;;4901000;29;19935;-77
2023/03/03 11:33:50;;;;;;;;;;;3.60;99.90;;;;;;4886096;29;19927;-77
2023/03/03 11:36:20;;;;;;;;;;;3.60;99.90;;;;;;4888647;29;22096;-78
2023/03/03 11:38:56;;;;;;;;;;;3.60;99.90;;;;;;4890436;29;19931;-78
2023/03/03 11:41:29;;;;;;;;;;;3.60;99.90;;;;;;4892242;29;20027;-78
2023/03/03 11:43:59;;;;;;;;;;;3.70;99.90;;;;;;4887657;29;19935;-78
2023/03/03 11:46:29;;;;;;;;;;;3.70;99.90;;;;;;4878675;29;20015;-78
2023/03/03 11:48:59;;;;;;;;;;;3.70;99.90;;;;;;4888371;29;19932;-78
2023/03/03 11:51:34;;;;;;;;;;;3.70;99.90;;;;;;4885828;29;20022;-78
2023/03/03 11:54:03;;;;;;;;;;;3.70;99.90;;;;;;4885341;29;19928;-77
2023/03/03 11:56:34;;;;;;;;;;;3.70;99.90;;;;;;4882423;29;19928;-78
2023/03/03 11:59:11;;;;;;;;;;;3.70;99.90;;;;;;4887587;29;19934;-77
2023/03/03 12:01:41;;;;;;;;;;;3.80;99.90;;;;;;4885740;29;19935;-79
2023/03/03 12:04:11;;;;;;;;;;;3.80;99.90;;;;;;4884565;29;20382;-78
2023/03/03 12:06:56;;;;;;;;;;;3.80;99.90;;;;;;4888862;29;19928;-78
2023/03/03 12:09:28;;;;;;;;;;;3.80;99.90;;;;;;4885731;29;19927;-79
2023/03/03 12:11:56;;;;;;;;;;;3.80;99.90;;;;;;4887528;29;19958;-79
2023/03/03 12:14:34;;;;;;;;;;;3.90;99.90;;;;;;4884689;29;19932;-78
2023/03/03 12:17:04;;;;;;;;;;;3.90;99.90;;;;;;4888632;29;20374;-79
2023/03/03 12:19:35;;;;;;;;;;;3.90;99.90;;;;;;4884072;29;20759;-78
2023/03/03 12:22:11;;;;;;;;;;;3.90;99.90;;;;;;4897383;29;19928;-80
2023/03/03 12:24:47;;;;;;;;;;;4.00;99.90;;;;;;4903897;29;20044;-78
2023/03/03 12:27:17;;;;;;;;;;;3.90;99.90;;;;;;4890960;29;19987;-79
2023/03/03 12:29:50;;;;;;;;;;;4.00;99.90;;;;;;4884366;29;19928;-79
2023/03/03 12:32:23;;;;;;;;;;;4.00;99.90;;;;;;4895198;29;19931;-80
2023/03/03 12:35:04;;;;;;;;;;;4.00;99.90;;;;;;4886670;29;20023;-80
2023/03/03 12:37:47;;;;;;;;;;;4.00;99.90;;;;;;4899450;29;19951;-81
2023/03/03 12:40:18;;;;;;;;;;;4.10;99.90;;;;;;4897948;29;19995;-81
2023/03/03 12:43:07;;;;;;;;;;;4.10;99.90;;;;;;4896299;29;19939;-79
2023/03/03 12:45:43;;;;;;;;;;;4.10;99.90;;;;;;4897738;29;19971;-79
2023/03/03 12:48:29;;;;;;;;;;;4.10;99.90;;;;;;4907202;29;20736;-80
2023/03/03 12:53:52;;;;;;;;;;;4.10;99.90;;;;;;4889868;29;19930;-79
2023/03/03 12:56:24;;;;;;;;;;;4.20;99.90;;;;;;4890486;29;19931;-80
2023/03/03 12:58:56;;;;;;;;;;;4.20;99.90;;;;;;4894786;29;19983;-79
2023/03/03 13:01:42;;;;;;;;;;;4.30;99.90;;;;;;4900070;29;19987;-80
2023/03/03 13:04:15;;;;;;;;;;;4.30;99.90;;;;;;4890847;29;19936;-81
2023/03/03 13:06:44;;;;;;;;;;;4.30;99.90;;;;;;4893453;29;20004;-78
2023/03/03 13:09:18;;;;;;;;;;;4.30;99.90;;;;;;4883480;29;19933;-80
2023/03/03 13:11:55;;;;;;;;;;;4.30;99.90;;;;;;4884162;29;19928;-78
2023/03/03 13:14:26;;;;;;;;;;;4.40;99.90;;;;;;4894841;29;20367;-79
2023/03/03 13:17:01;;;;;;;;;;;4.40;99.90;;;;;;4892451;29;19953;-79
2023/03/03 13:19:31;;;;;;;;;;;4.50;99.90;;;;;;4891187;29;19936;-79
2023/03/03 13:22:00;;;;;;;;;;;4.50;99.90;;;;;;4891041;29;19931;-78
2023/03/03 13:24:31;;;;;;;;;;;4.60;99.90;;;;;;4889314;29;19943;-79
2023/03/03 13:27:02;;;;;;;;;;;4.60;99.90;;;;;;4880328;29;20039;-80
2023/03/03 13:29:32;;;;;;;;;;;4.60;99.90;;;;;;4891227;29;19936;-80
2023/03/03 13:32:00;;;;;;;;;;;4.60;99.90;;;;;;4892086;29;19977;-80
2023/03/03 13:34:48;;;;;;;;;;;4.60;99.90;;;;;;4888367;29;19927;-80
2023/03/03 13:37:20;;;;;;;;;;;4.60;99.90;;;;;;4885418;29;19928;-80
2023/03/03 13:39:53;;;;;;;;;;;4.60;99.90;;;;;;4887084;29;19975;-80
2023/03/03 13:42:24;;;;;;;;;;;4.70;99.90;;;;;;4891267;29;20457;-80
2023/03/03 13:44:52;;;;;;;;;;;4.70;99.90;;;;;;4890587;29;19931;-79
2023/03/03 13:47:28;;;;;;;;;;;4.80;99.90;;;;;;4896319;29;19931;-80
2023/03/03 13:50:14;;;;;;;;;;;4.90;99.90;;;;;;4924999;29;19987;-80
2023/03/03 13:52:55;;;;;;;;;;;4.90;99.90;;;;;;4922675;29;20034;-79
2023/03/03 13:55:28;;;;;;;;;;;4.80;99.90;;;;;;4893143;29;19928;-79
2023/03/03 13:58:02;;;;;;;;;;;4.90;99.90;;;;;;4890538;29;19928;-79
2023/03/03 14:00:34;;;;;;;;;;;4.90;99.90;;;;;;4891881;29;19936;-80
2023/03/03 14:03:23;;;;;;;;;;;4.90;99.90;;;;;;4895944;29;20017;-79
2023/03/03 14:05:56;;;;;;;;;;;5.00;99.90;;;;;;4892595;29;19935;-79
2023/03/03 14:08:32;;;;;;;;;;;5.00;99.90;;;;;;4892122;29;20314;-79
2023/03/03 14:11:10;;;;;;;;;;;5.10;99.90;;;;;;4897235;29;19941;-80
2023/03/03 14:13:42;;;;;;;;;;;5.10;99.90;;;;;;4897288;29;20401;-79
2023/03/03 14:16:17;;;;;;;;;;;5.10;99.90;;;;;;4894566;29;20390;-79
2023/03/03 14:18:51;;;;;;;;;;;5.20;99.90;;;;;;4892164;29;19932;-80
2023/03/03 14:21:20;;;;;;;;;;;5.30;99.90;;;;;;4885744;29;20530;-78
2023/03/03 14:23:53;;;;;;;;;;;5.40;99.90;;;;;;4888074;29;20030;-80
2023/03/03 14:26:21;;;;;;;;;;;5.50;99.90;;;;;;4890060;29;19932;-79
2023/03/03 14:28:51;;;;;;;;;;;5.50;99.90;;;;;;4892553;29;20019;-79
2023/03/03 14:31:25;;;;;;;;;;;5.50;99.90;;;;;;4898948;29;19932;-79
2023/03/03 14:34:00;;;;;;;;;;;5.60;99.90;;;;;;4889681;29;20409;-79
2023/03/03 14:36:29;;;;;;;;;;;5.60;99.90;;;;;;4892888;29;19932;-81
2023/03/03 14:38:58;;;;;;;;;;;5.70;99.90;;;;;;4883996;29;19928;-81
2023/03/03 14:41:37;;;;;;;;;;;5.70;99.90;;;;;;4911451;29;19973;-80
2023/03/03 14:44:35;;;;;;;;;;;5.60;99.90;;;;;;4912838;29;20402;-80
2023/03/03 14:47:21;;;;;;;;;;;5.60;99.90;;;;;;4922758;29;20370;-80
2023/03/03 14:49:51;;;;;;;;;;;5.60;99.90;;;;;;4893096;29;19935;-80
2023/03/03 15:33:10;;;;;;;;;;;5.90;99.90;;;;;;5073457;23;19933;-80
2023/03/03 15:36:09;;;;;;;;;;;5.90;99.90;;;;;;4911325;29;19943;-80
2023/03/03 15:38:46;;;;;;;;;;;6.00;99.90;;;;;;4907327;29;19927;-80
2023/03/03 15:41:21;;;;;;;;;;;6.00;99.90;;;;;;4901510;29;19934;-80
2023/03/03 15:43:57;;;;;;;;;;;6.00;99.90;;;;;;4901888;29;19928;-80
2023/03/03 15:46:35;;;;;;;;;;;6.00;99.90;;;;;;4903674;29;19943;-81
2023/03/03 15:49:19;;;;;;;;;;;6.00;99.90;;;;;;4916973;29;19950;-80
2023/03/03 15:52:01;;;;;;;;;;;6.00;99.90;;;;;;4911247;29;19927;-80